Midnight Sun — CFG7615 — position and weather

sailwx.info

Track history (hours):
 
Tides and Currents Weather Stations Pressure Air Temp Water Temp Dewpoint Dewpoint Depression Visibility Wind Speed Wind Dir Waves Ship Positions

Midnight Sun

Last reported at 2014-Jul-28 20:33 UTC. Time now 2014-Aug-01 09:56 UTC.
Position N 49°52' W 124°36'.

Length 25 m; draft 3.1 m.

Type: Pleasure craft. MMSI: 316001152.

Date/timePositionNaut miles runAvg speedWind from/ knotsBaromVisibWave heightAir tempDewpointWater temp
2014-Jul-28 20:33N 49°52' W 124°36'8 7.0
2014-Jul-28 19:28N 49°46' W 124°28'9 7.9
2014-Jul-28 18:20N 49°43' W 124°15'3 2.3
2014-Jul-28 17:09N 49°43' W 124°11'0 0.0
2014-Jul-28 16:33N 49°43' W 124°11'0 0.0
2014-Jul-28 15:27N 49°43' W 124°11'0 0.0
2014-Jul-28 14:33N 49°43' W 124°11'0 0.0
2014-Jul-28 13:33N 49°43' W 124°11'0 0.0
2014-Jul-28 12:27N 49°43' W 124°11'0 0.0
2014-Jul-28 11:27N 49°43' W 124°11'0 0.0
2014-Jul-28 10:33N 49°43' W 124°11'0 0.0
2014-Jul-28 09:33N 49°43' W 124°11'0 0.0
2014-Jul-28 08:15N 49°43' W 124°11'0 0.0
2014-Jul-28 07:33N 49°43' W 124°11'0 0.0
2014-Jul-28 06:09N 49°43' W 124°11'0 0.0
2014-Jul-28 05:33N 49°43' W 124°11'0 0.0
2014-Jul-28 04:33N 49°43' W 124°11'0 0.0
2014-Jul-28 03:27N 49°43' W 124°11'0 0.0
2014-Jul-28 02:27N 49°43' W 124°11'0 0.0
2014-Jul-28 01:17N 49°43' W 124°11'0 0.3
2014-Jul-28 00:32N 49°43' W 124°11'3 2.6
2014-Jul-27 23:32N 49°41' W 124°13'8 8.2
2014-Jul-27 22:32N 49°35' W 124°04'8 8.0
2014-Jul-27 21:33N 49°29' W 123°56'8 8.2
2014-Jul-27 20:33N 49°25' W 123°45'9 8.8
2014-Jul-27 19:31N 49°22' W 123°32'8 8.2
2014-Jul-27 18:33N 49°20' W 123°20'9 8.9
2014-Jul-27 17:33N 49°18' W 123°07'1 0.7
2014-Jul-27 16:33N 49°18' W 123°08'0 0.0
2014-Jul-27 15:33N 49°18' W 123°08'0 0.0
2014-Jul-27 14:33N 49°18' W 123°08'0 0.0
2014-Jul-27 13:33N 49°18' W 123°08'0 0.0
2014-Jul-27 12:33N 49°18' W 123°08'0 0.0
2014-Jul-27 11:33N 49°18' W 123°08'0 0.0
2014-Jul-27 10:33N 49°18' W 123°08'0 0.0
2014-Jul-27 09:33N 49°18' W 123°08'0 0.0
2014-Jul-27 08:33N 49°18' W 123°08'0 0.0
2014-Jul-27 07:33N 49°18' W 123°08'1 0.7
2014-Jul-27 06:33N 49°18' W 123°07'2 1.6
2014-Jul-27 05:29N 49°18' W 123°09'0 0.0
2014-Jul-27 04:32N 49°18' W 123°09'0 0.0
2014-Jul-27 03:32N 49°18' W 123°09'1 1.2
2014-Jul-27 02:33N 49°18' W 123°08'0 0.0
2014-Jul-27 01:32N 49°18' W 123°08'0 0.0
2014-Jul-27 00:32N 49°18' W 123°08'0 0.0
2014-Jul-26 23:32N 49°18' W 123°08'0 0.0
2014-Jul-26 22:32N 49°18' W 123°08'0 0.0
2014-Jul-26 21:32N 49°18' W 123°08'0 0.0
2014-Jul-26 20:32N 49°18' W 123°08'0 0.0
2014-Jul-26 19:32N 49°18' W 123°08'0 0.0
2014-Jul-26 18:32N 49°18' W 123°08'0 0.0
2014-Jul-26 17:32N 49°18' W 123°08'0 0.0
2014-Jul-26 16:32N 49°18' W 123°08'0 0.0
2014-Jul-26 15:32N 49°18' W 123°08'0 0.0
2014-Jul-26 14:32N 49°18' W 123°08'0 0.0
2014-Jul-26 13:32N 49°18' W 123°08'0 0.0
2014-Jul-26 12:32N 49°18' W 123°08'0 0.0
2014-Jul-26 11:29N 49°18' W 123°08'0 0.0
2014-Jul-26 10:32N 49°18' W 123°08'0 0.0
2014-Jul-26 09:32N 49°18' W 123°08'0 0.0
2014-Jul-26 08:32N 49°18' W 123°08'0 0.0
2014-Jul-26 07:32N 49°18' W 123°08'0 0.0
2014-Jul-26 06:32N 49°18' W 123°08'0 0.0
2014-Jul-26 05:32N 49°18' W 123°08'0 0.0
2014-Jul-26 04:32N 49°18' W 123°08'0 0.0
2014-Jul-26 03:32N 49°18' W 123°08'0 0.0
2014-Jul-26 02:32N 49°18' W 123°08'0 0.0
2014-Jul-26 01:32N 49°18' W 123°08'0 0.0
2014-Jul-26 00:32N 49°18' W 123°08'0 0.0
2014-Jul-25 23:32N 49°18' W 123°08'0 0.0
2014-Jul-25 22:32N 49°18' W 123°08'0 0.0
2014-Jul-25 21:32N 49°18' W 123°08'0 0.0
2014-Jul-25 20:32N 49°18' W 123°08'0 0.0
2014-Jul-25 19:32N 49°18' W 123°08'0 0.0
2014-Jul-25 18:32N 49°18' W 123°08'0 0.0
2014-Jul-25 17:32N 49°18' W 123°08'0 0.0
2014-Jul-25 16:33N 49°18' W 123°08'0 0.0
2014-Jul-25 15:33N 49°18' W 123°08'0 0.0
2014-Jul-25 14:33N 49°18' W 123°08'0 0.0
2014-Jul-25 13:33N 49°18' W 123°08'0 0.0
2014-Jul-25 12:33N 49°18' W 123°08'0 0.0
2014-Jul-25 11:33N 49°18' W 123°08'0 0.0
2014-Jul-25 10:33N 49°18' W 123°08'0 0.0
2014-Jul-25 09:33N 49°18' W 123°08'0 0.0
2014-Jul-25 08:33N 49°18' W 123°08'0 0.0
2014-Jul-25 07:33N 49°18' W 123°08'0 0.0
2014-Jul-25 06:33N 49°18' W 123°08'0 0.0
2014-Jul-25 05:33N 49°18' W 123°08'0 0.0
2014-Jul-25 04:33N 49°18' W 123°08'2 1.7
2014-Jul-25 03:33N 49°19' W 123°09'1 1.5
2014-Jul-25 02:33N 49°17' W 123°09'1 1.1
2014-Jul-25 01:33N 49°18' W 123°08'0 0.0
2014-Jul-25 00:33N 49°18' W 123°08'0 0.0
2014-Jul-24 23:31N 49°18' W 123°08'0 0.0
2014-Jul-24 22:31N 49°18' W 123°08'0 0.0
2014-Jul-24 21:32N 49°18' W 123°08'0 0.0
2014-Jul-24 20:31N 49°18' W 123°08'0 0.0
2014-Jul-24 19:31N 49°18' W 123°08'0 0.0
2014-Jul-24 18:31N 49°18' W 123°08'0 0.0
2014-Jul-24 17:31N 49°18' W 123°08'0 0.0
2014-Jul-24 16:31N 49°18' W 123°08'0 0.0
2014-Jul-24 15:31N 49°18' W 123°08'0 0.0
2014-Jul-24 14:31N 49°18' W 123°08'0 0.0
2014-Jul-24 13:31N 49°18' W 123°08'0 0.0
2014-Jul-24 12:31N 49°18' W 123°08'0 0.0
2014-Jul-24 11:31N 49°18' W 123°08'0 0.0
2014-Jul-24 10:31N 49°18' W 123°08'0 0.0
2014-Jul-24 09:31N 49°18' W 123°08'0 0.0
2014-Jul-24 08:31N 49°18' W 123°08'0 0.0
2014-Jul-24 07:31N 49°18' W 123°08'0 0.0
2014-Jul-24 06:31N 49°18' W 123°08'0 0.0
2014-Jul-24 05:31N 49°18' W 123°08'0 0.0
2014-Jul-24 04:31N 49°18' W 123°08'0 0.0
2014-Jul-24 03:31N 49°18' W 123°08'0 0.0
2014-Jul-24 02:32N 49°18' W 123°08'0 0.0
2014-Jul-24 01:31N 49°18' W 123°08'0 0.0
2014-Jul-24 00:31N 49°18' W 123°08'0 0.0
2014-Jul-23 23:31N 49°18' W 123°08'0 0.0
2014-Jul-23 22:31N 49°18' W 123°08'0 0.0
2014-Jul-23 21:31N 49°18' W 123°08'0 0.0
2014-Jul-23 20:31N 49°18' W 123°08'0 0.0
2014-Jul-23 19:32N 49°18' W 123°08'0 0.0
2014-Jul-23 18:31N 49°18' W 123°08'0 0.0
2014-Jul-23 17:31N 49°18' W 123°08'0 0.0
2014-Jul-23 16:31N 49°18' W 123°08'0 0.0
2014-Jul-23 15:31N 49°18' W 123°08'0 0.0
2014-Jul-23 14:31N 49°18' W 123°08'0 0.0
2014-Jul-23 13:31N 49°18' W 123°08'0 0.0
2014-Jul-23 12:31N 49°18' W 123°08'0 0.0
2014-Jul-23 11:31N 49°18' W 123°08'0 0.0
2014-Jul-23 10:31N 49°18' W 123°08'0 0.0
2014-Jul-23 09:31N 49°18' W 123°08'0 0.0
2014-Jul-23 08:31N 49°18' W 123°08'0 0.0
2014-Jul-23 07:31N 49°18' W 123°08'0 0.0
2014-Jul-23 06:31N 49°18' W 123°08'0 0.0
2014-Jul-23 05:31N 49°18' W 123°08'0 0.0
2014-Jul-23 04:31N 49°18' W 123°08'1 0.7
2014-Jul-23 03:33N 49°18' W 123°07'2 1.9
2014-Jul-23 02:33N 49°16' W 123°08'3 2.9
2014-Jul-23 01:33N 49°19' W 123°05'2 1.8
2014-Jul-23 00:31N 49°18' W 123°08'0 0.0
2014-Jul-22 23:31N 49°18' W 123°08'0 0.0
2014-Jul-22 22:31N 49°18' W 123°08'0 0.0
2014-Jul-22 21:31N 49°18' W 123°08'0 0.0
2014-Jul-22 20:31N 49°18' W 123°08'0 0.0
2014-Jul-22 19:31N 49°18' W 123°08'0 0.0
2014-Jul-22 18:31N 49°18' W 123°08'0 0.0
2014-Jul-22 17:31N 49°18' W 123°08'0 0.0
2014-Jul-22 16:31N 49°18' W 123°08'0 0.0
2014-Jul-22 15:31N 49°18' W 123°08'0 0.0
2014-Jul-22 14:31N 49°18' W 123°08'0 0.0
2014-Jul-22 13:32N 49°18' W 123°08'0 0.0
2014-Jul-22 12:31N 49°18' W 123°08'0 0.0
2014-Jul-22 11:31N 49°18' W 123°08'0 0.0
2014-Jul-22 10:31N 49°18' W 123°08'0 0.0
2014-Jul-22 09:31N 49°18' W 123°08'0 0.0
2014-Jul-22 08:31N 49°18' W 123°08'0 0.0
2014-Jul-22 07:31N 49°18' W 123°08'0 0.0
2014-Jul-22 06:31N 49°18' W 123°08'0 0.0
2014-Jul-22 05:31N 49°18' W 123°08'0 0.0
2014-Jul-22 04:32N 49°18' W 123°08'0 0.0
2014-Jul-22 03:31N 49°18' W 123°08'0 0.0
2014-Jul-22 02:31N 49°18' W 123°08'0 0.0
2014-Jul-22 01:31N 49°18' W 123°08'0 0.0
2014-Jul-22 00:31N 49°18' W 123°08'0 0.0
2014-Jul-21 23:31N 49°18' W 123°08'0 0.0
2014-Jul-21 22:31N 49°18' W 123°08'0 0.0
2014-Jul-21 21:31N 49°18' W 123°08'0 0.0
2014-Jul-21 20:31N 49°18' W 123°08'0 0.0
2014-Jul-21 20:16N 49°18' W 123°08'0 0.0
2014-Jul-21 19:31N 49°18' W 123°08'0 0.0
2014-Jul-21 18:31N 49°18' W 123°08'0 0.0
2014-Jul-21 17:31N 49°18' W 123°08'0 0.0
2014-Jul-21 16:31N 49°18' W 123°08'0 0.0
2014-Jul-21 15:31N 49°18' W 123°08'0 0.0
2014-Jul-21 14:31N 49°18' W 123°08'0 0.0
2014-Jul-21 13:31N 49°18' W 123°08'0 0.0
2014-Jul-21 12:31N 49°18' W 123°08'0 0.0
2014-Jul-21 11:31N 49°18' W 123°08'0 0.0
2014-Jul-21 10:28N 49°18' W 123°08'0 0.0
2014-Jul-21 09:31N 49°18' W 123°08'0 0.0
2014-Jul-21 08:28N 49°18' W 123°08'0 0.0
2014-Jul-21 07:31N 49°18' W 123°08'0 0.0
2014-Jul-21 06:33N 49°18' W 123°08'0 0.0
2014-Jul-21 05:33N 49°18' W 123°08'0 0.0
2014-Jul-21 04:32N 49°18' W 123°08'0 0.0
2014-Jul-21 03:32N 49°18' W 123°08'0 0.0
2014-Jul-21 02:32N 49°18' W 123°08'0 0.0
2014-Jul-21 01:32N 49°18' W 123°08'0 0.0
2014-Jul-21 00:29N 49°18' W 123°08'0 0.0
2014-Jul-20 23:32N 49°18' W 123°08'0 0.0
2014-Jul-20 22:32N 49°18' W 123°08'0 0.0
2014-Jul-20 21:32N 49°18' W 123°08'0 0.0
2014-Jul-20 20:32N 49°18' W 123°08'0 0.0
2014-Jul-20 19:32N 49°18' W 123°08'0 0.0
2014-Jul-20 18:32N 49°18' W 123°08'0 0.0
2014-Jul-20 17:32N 49°18' W 123°08'0 0.0
2014-Jul-20 16:32N 49°18' W 123°08'0 0.0
2014-Jul-20 15:32N 49°18' W 123°08'0 0.0
2014-Jul-20 14:32N 49°18' W 123°08'0 0.0
2014-Jul-20 13:32N 49°18' W 123°08'0 0.0
2014-Jul-20 12:32N 49°18' W 123°08'0 0.0
2014-Jul-20 11:32N 49°18' W 123°08'0 0.0
2014-Jul-20 10:32N 49°18' W 123°08'0 0.0
2014-Jul-20 09:32N 49°18' W 123°08'0 0.0
2014-Jul-20 08:32N 49°18' W 123°08'0 0.0
2014-Jul-20 07:32N 49°18' W 123°08'0 0.0
2014-Jul-20 06:32N 49°18' W 123°08'0 0.0
2014-Jul-20 05:32N 49°18' W 123°08'0 0.0
2014-Jul-20 04:32N 49°18' W 123°08'0 0.1
2014-Jul-20 03:33N 49°18' W 123°08'1 1.4
2014-Jul-20 02:33N 49°16' W 123°07'1 1.4
2014-Jul-20 01:33N 49°18' W 123°08'0 0.0
2014-Jul-20 00:33N 49°18' W 123°08'0 0.0
2014-Jul-19 23:33N 49°18' W 123°08'0 0.0
2014-Jul-19 22:33N 49°18' W 123°08'0 0.0
2014-Jul-19 21:33N 49°18' W 123°08'0 0.0
2014-Jul-19 20:33N 49°18' W 123°08'0 0.0
2014-Jul-19 19:33N 49°18' W 123°08'0 0.0
2014-Jul-19 18:33N 49°18' W 123°08'0 0.0
2014-Jul-19 17:33N 49°18' W 123°08'0 0.0
2014-Jul-19 16:33N 49°18' W 123°08'0 0.0
2014-Jul-19 15:33N 49°18' W 123°08'0 0.0
2014-Jul-19 14:33N 49°18' W 123°08'0 0.0
2014-Jul-19 13:33N 49°18' W 123°08'0 0.0
2014-Jul-19 12:33N 49°18' W 123°08'0 0.0
2014-Jul-19 11:33N 49°18' W 123°08'0 0.0
2014-Jul-19 10:33N 49°18' W 123°08'0 0.0
2014-Jul-19 09:33N 49°18' W 123°08'0 0.0
2014-Jul-19 08:33N 49°18' W 123°08'0 0.0
2014-Jul-19 07:33N 49°18' W 123°08'0 0.0
2014-Jul-19 06:33N 49°18' W 123°08'0 0.0
2014-Jul-19 05:33N 49°18' W 123°08'0 0.0
2014-Jul-19 04:33N 49°18' W 123°08'0 0.0
2014-Jul-19 03:33N 49°18' W 123°08'0 0.0
2014-Jul-19 02:33N 49°18' W 123°08'0 0.0
2014-Jul-19 01:33N 49°18' W 123°08'0 0.0
2014-Jul-19 00:33N 49°18' W 123°08'0 0.0
2014-Jul-18 23:33N 49°18' W 123°08'0 0.0
2014-Jul-18 22:33N 49°18' W 123°08'0 0.0
2014-Jul-18 21:33N 49°18' W 123°08'0 0.0
2014-Jul-18 20:33N 49°18' W 123°08'  
Track history (hours):
 
Tides and Currents Weather Stations Pressure Air Temp Water Temp Dewpoint Dewpoint Depression Visibility Wind Speed Wind Dir Waves Ship Positions

Midnight Sun

Last reported at 2014-Jul-28 20:33 UTC. Time now 2014-Aug-01 09:56 UTC.
Position N 49°52' W 124°36'.

Length 25 m; draft 3.1 m.

Type: Pleasure craft. MMSI: 316001152.

Date/timePositionNaut miles runAvg speedWind from/ knotsBaromVisibWave heightAir tempDewpointWater temp
2014-Jul-28 20:33N 49°52' W 124°36'8 7.0
2014-Jul-28 19:28N 49°46' W 124°28'9 7.9
2014-Jul-28 18:20N 49°43' W 124°15'3 2.3
2014-Jul-28 17:09N 49°43' W 124°11'0 0.0
2014-Jul-28 16:33N 49°43' W 124°11'0 0.0
2014-Jul-28 15:27N 49°43' W 124°11'0 0.0
2014-Jul-28 14:33N 49°43' W 124°11'0 0.0
2014-Jul-28 13:33N 49°43' W 124°11'0 0.0
2014-Jul-28 12:27N 49°43' W 124°11'0 0.0
2014-Jul-28 11:27N 49°43' W 124°11'0 0.0
2014-Jul-28 10:33N 49°43' W 124°11'0 0.0
2014-Jul-28 09:33N 49°43' W 124°11'0 0.0
2014-Jul-28 08:15N 49°43' W 124°11'0 0.0
2014-Jul-28 07:33N 49°43' W 124°11'0 0.0
2014-Jul-28 06:09N 49°43' W 124°11'0 0.0
2014-Jul-28 05:33N 49°43' W 124°11'0 0.0
2014-Jul-28 04:33N 49°43' W 124°11'0 0.0
2014-Jul-28 03:27N 49°43' W 124°11'0 0.0
2014-Jul-28 02:27N 49°43' W 124°11'0 0.0
2014-Jul-28 01:17N 49°43' W 124°11'0 0.3
2014-Jul-28 00:32N 49°43' W 124°11'3 2.6
2014-Jul-27 23:32N 49°41' W 124°13'8 8.2
2014-Jul-27 22:32N 49°35' W 124°04'8 8.0
2014-Jul-27 21:33N 49°29' W 123°56'8 8.2
2014-Jul-27 20:33N 49°25' W 123°45'9 8.8
2014-Jul-27 19:31N 49°22' W 123°32'8 8.2
2014-Jul-27 18:33N 49°20' W 123°20'9 8.9
2014-Jul-27 17:33N 49°18' W 123°07'1 0.7
2014-Jul-27 16:33N 49°18' W 123°08'0 0.0
2014-Jul-27 15:33N 49°18' W 123°08'0 0.0
2014-Jul-27 14:33N 49°18' W 123°08'0 0.0
2014-Jul-27 13:33N 49°18' W 123°08'0 0.0
2014-Jul-27 12:33N 49°18' W 123°08'0 0.0
2014-Jul-27 11:33N 49°18' W 123°08'0 0.0
2014-Jul-27 10:33N 49°18' W 123°08'0 0.0
2014-Jul-27 09:33N 49°18' W 123°08'0 0.0
2014-Jul-27 08:33N 49°18' W 123°08'0 0.0
2014-Jul-27 07:33N 49°18' W 123°08'1 0.7
2014-Jul-27 06:33N 49°18' W 123°07'2 1.6
2014-Jul-27 05:29N 49°18' W 123°09'0 0.0
2014-Jul-27 04:32N 49°18' W 123°09'0 0.0
2014-Jul-27 03:32N 49°18' W 123°09'1 1.2
2014-Jul-27 02:33N 49°18' W 123°08'0 0.0
2014-Jul-27 01:32N 49°18' W 123°08'0 0.0
2014-Jul-27 00:32N 49°18' W 123°08'0 0.0
2014-Jul-26 23:32N 49°18' W 123°08'0 0.0
2014-Jul-26 22:32N 49°18' W 123°08'0 0.0
2014-Jul-26 21:32N 49°18' W 123°08'0 0.0
2014-Jul-26 20:32N 49°18' W 123°08'0 0.0
2014-Jul-26 19:32N 49°18' W 123°08'0 0.0
2014-Jul-26 18:32N 49°18' W 123°08'0 0.0
2014-Jul-26 17:32N 49°18' W 123°08'0 0.0
2014-Jul-26 16:32N 49°18' W 123°08'0 0.0
2014-Jul-26 15:32N 49°18' W 123°08'0 0.0
2014-Jul-26 14:32N 49°18' W 123°08'0 0.0
2014-Jul-26 13:32N 49°18' W 123°08'0 0.0
2014-Jul-26 12:32N 49°18' W 123°08'0 0.0
2014-Jul-26 11:29N 49°18' W 123°08'0 0.0
2014-Jul-26 10:32N 49°18' W 123°08'0 0.0
2014-Jul-26 09:32N 49°18' W 123°08'0 0.0
2014-Jul-26 08:32N 49°18' W 123°08'0 0.0
2014-Jul-26 07:32N 49°18' W 123°08'0 0.0
2014-Jul-26 06:32N 49°18' W 123°08'0 0.0
2014-Jul-26 05:32N 49°18' W 123°08'0 0.0
2014-Jul-26 04:32N 49°18' W 123°08'0 0.0
2014-Jul-26 03:32N 49°18' W 123°08'0 0.0
2014-Jul-26 02:32N 49°18' W 123°08'0 0.0
2014-Jul-26 01:32N 49°18' W 123°08'0 0.0
2014-Jul-26 00:32N 49°18' W 123°08'0 0.0
2014-Jul-25 23:32N 49°18' W 123°08'0 0.0
2014-Jul-25 22:32N 49°18' W 123°08'0 0.0
2014-Jul-25 21:32N 49°18' W 123°08'0 0.0
2014-Jul-25 20:32N 49°18' W 123°08'0 0.0
2014-Jul-25 19:32N 49°18' W 123°08'0 0.0
2014-Jul-25 18:32N 49°18' W 123°08'0 0.0
2014-Jul-25 17:32N 49°18' W 123°08'0 0.0
2014-Jul-25 16:33N 49°18' W 123°08'0 0.0
2014-Jul-25 15:33N 49°18' W 123°08'0 0.0
2014-Jul-25 14:33N 49°18' W 123°08'0 0.0
2014-Jul-25 13:33N 49°18' W 123°08'0 0.0
2014-Jul-25 12:33N 49°18' W 123°08'0 0.0
2014-Jul-25 11:33N 49°18' W 123°08'0 0.0
2014-Jul-25 10:33N 49°18' W 123°08'0 0.0
2014-Jul-25 09:33N 49°18' W 123°08'0 0.0
2014-Jul-25 08:33N 49°18' W 123°08'0 0.0
2014-Jul-25 07:33N 49°18' W 123°08'0 0.0
2014-Jul-25 06:33N 49°18' W 123°08'0 0.0
2014-Jul-25 05:33N 49°18' W 123°08'0 0.0
2014-Jul-25 04:33N 49°18' W 123°08'2 1.7
2014-Jul-25 03:33N 49°19' W 123°09'1 1.5
2014-Jul-25 02:33N 49°17' W 123°09'1 1.1
2014-Jul-25 01:33N 49°18' W 123°08'0 0.0
2014-Jul-25 00:33N 49°18' W 123°08'0 0.0
2014-Jul-24 23:31N 49°18' W 123°08'0 0.0
2014-Jul-24 22:31N 49°18' W 123°08'0 0.0
2014-Jul-24 21:32N 49°18' W 123°08'0 0.0
2014-Jul-24 20:31N 49°18' W 123°08'0 0.0
2014-Jul-24 19:31N 49°18' W 123°08'0 0.0
2014-Jul-24 18:31N 49°18' W 123°08'0 0.0
2014-Jul-24 17:31N 49°18' W 123°08'0 0.0
2014-Jul-24 16:31N 49°18' W 123°08'0 0.0
2014-Jul-24 15:31N 49°18' W 123°08'0 0.0
2014-Jul-24 14:31N 49°18' W 123°08'0 0.0
2014-Jul-24 13:31N 49°18' W 123°08'0 0.0
2014-Jul-24 12:31N 49°18' W 123°08'0 0.0
2014-Jul-24 11:31N 49°18' W 123°08'0 0.0
2014-Jul-24 10:31N 49°18' W 123°08'0 0.0
2014-Jul-24 09:31N 49°18' W 123°08'0 0.0
2014-Jul-24 08:31N 49°18' W 123°08'0 0.0
2014-Jul-24 07:31N 49°18' W 123°08'0 0.0
2014-Jul-24 06:31N 49°18' W 123°08'0 0.0
2014-Jul-24 05:31N 49°18' W 123°08'0 0.0
2014-Jul-24 04:31N 49°18' W 123°08'0 0.0
2014-Jul-24 03:31N 49°18' W 123°08'0 0.0
2014-Jul-24 02:32N 49°18' W 123°08'0 0.0
2014-Jul-24 01:31N 49°18' W 123°08'0 0.0
2014-Jul-24 00:31N 49°18' W 123°08'0 0.0
2014-Jul-23 23:31N 49°18' W 123°08'0 0.0
2014-Jul-23 22:31N 49°18' W 123°08'0 0.0
2014-Jul-23 21:31N 49°18' W 123°08'0 0.0
2014-Jul-23 20:31N 49°18' W 123°08'0 0.0
2014-Jul-23 19:32N 49°18' W 123°08'0 0.0
2014-Jul-23 18:31N 49°18' W 123°08'0 0.0
2014-Jul-23 17:31N 49°18' W 123°08'0 0.0
2014-Jul-23 16:31N 49°18' W 123°08'0 0.0
2014-Jul-23 15:31N 49°18' W 123°08'0 0.0
2014-Jul-23 14:31N 49°18' W 123°08'0 0.0
2014-Jul-23 13:31N 49°18' W 123°08'0 0.0
2014-Jul-23 12:31N 49°18' W 123°08'0 0.0
2014-Jul-23 11:31N 49°18' W 123°08'0 0.0
2014-Jul-23 10:31N 49°18' W 123°08'0 0.0
2014-Jul-23 09:31N 49°18' W 123°08'0 0.0
2014-Jul-23 08:31N 49°18' W 123°08'0 0.0
2014-Jul-23 07:31N 49°18' W 123°08'0 0.0
2014-Jul-23 06:31N 49°18' W 123°08'0 0.0
2014-Jul-23 05:31N 49°18' W 123°08'0 0.0
2014-Jul-23 04:31N 49°18' W 123°08'1 0.7
2014-Jul-23 03:33N 49°18' W 123°07'2 1.9
2014-Jul-23 02:33N 49°16' W 123°08'3 2.9
2014-Jul-23 01:33N 49°19' W 123°05'2 1.8
2014-Jul-23 00:31N 49°18' W 123°08'0 0.0
2014-Jul-22 23:31N 49°18' W 123°08'0 0.0
2014-Jul-22 22:31N 49°18' W 123°08'0 0.0
2014-Jul-22 21:31N 49°18' W 123°08'0 0.0
2014-Jul-22 20:31N 49°18' W 123°08'0 0.0
2014-Jul-22 19:31N 49°18' W 123°08'0 0.0
2014-Jul-22 18:31N 49°18' W 123°08'0 0.0
2014-Jul-22 17:31N 49°18' W 123°08'0 0.0
2014-Jul-22 16:31N 49°18' W 123°08'0 0.0
2014-Jul-22 15:31N 49°18' W 123°08'0 0.0
2014-Jul-22 14:31N 49°18' W 123°08'0 0.0
2014-Jul-22 13:32N 49°18' W 123°08'0 0.0
2014-Jul-22 12:31N 49°18' W 123°08'0 0.0
2014-Jul-22 11:31N 49°18' W 123°08'0 0.0
2014-Jul-22 10:31N 49°18' W 123°08'0 0.0
2014-Jul-22 09:31N 49°18' W 123°08'0 0.0
2014-Jul-22 08:31N 49°18' W 123°08'0 0.0
2014-Jul-22 07:31N 49°18' W 123°08'0 0.0
2014-Jul-22 06:31N 49°18' W 123°08'0 0.0
2014-Jul-22 05:31N 49°18' W 123°08'0 0.0
2014-Jul-22 04:32N 49°18' W 123°08'0 0.0
2014-Jul-22 03:31N 49°18' W 123°08'0 0.0
2014-Jul-22 02:31N 49°18' W 123°08'0 0.0
2014-Jul-22 01:31N 49°18' W 123°08'0 0.0
2014-Jul-22 00:31N 49°18' W 123°08'0 0.0
2014-Jul-21 23:31N 49°18' W 123°08'0 0.0
2014-Jul-21 22:31N 49°18' W 123°08'0 0.0
2014-Jul-21 21:31N 49°18' W 123°08'0 0.0
2014-Jul-21 20:31N 49°18' W 123°08'0 0.0
2014-Jul-21 20:16N 49°18' W 123°08'0 0.0
2014-Jul-21 19:31N 49°18' W 123°08'0 0.0
2014-Jul-21 18:31N 49°18' W 123°08'0 0.0
2014-Jul-21 17:31N 49°18' W 123°08'0 0.0
2014-Jul-21 16:31N 49°18' W 123°08'0 0.0
2014-Jul-21 15:31N 49°18' W 123°08'0 0.0
2014-Jul-21 14:31N 49°18' W 123°08'0 0.0
2014-Jul-21 13:31N 49°18' W 123°08'0 0.0
2014-Jul-21 12:31N 49°18' W 123°08'0 0.0
2014-Jul-21 11:31N 49°18' W 123°08'0 0.0
2014-Jul-21 10:28N 49°18' W 123°08'0 0.0
2014-Jul-21 09:31N 49°18' W 123°08'0 0.0
2014-Jul-21 08:28N 49°18' W 123°08'0 0.0
2014-Jul-21 07:31N 49°18' W 123°08'0 0.0
2014-Jul-21 06:33N 49°18' W 123°08'0 0.0
2014-Jul-21 05:33N 49°18' W 123°08'0 0.0
2014-Jul-21 04:32N 49°18' W 123°08'0 0.0
2014-Jul-21 03:32N 49°18' W 123°08'0 0.0
2014-Jul-21 02:32N 49°18' W 123°08'0 0.0
2014-Jul-21 01:32N 49°18' W 123°08'0 0.0
2014-Jul-21 00:29N 49°18' W 123°08'0 0.0
2014-Jul-20 23:32N 49°18' W 123°08'0 0.0
2014-Jul-20 22:32N 49°18' W 123°08'0 0.0
2014-Jul-20 21:32N 49°18' W 123°08'0 0.0
2014-Jul-20 20:32N 49°18' W 123°08'0 0.0
2014-Jul-20 19:32N 49°18' W 123°08'0 0.0
2014-Jul-20 18:32N 49°18' W 123°08'0 0.0
2014-Jul-20 17:32N 49°18' W 123°08'0 0.0
2014-Jul-20 16:32N 49°18' W 123°08'0 0.0
2014-Jul-20 15:32N 49°18' W 123°08'0 0.0
2014-Jul-20 14:32N 49°18' W 123°08'0 0.0
2014-Jul-20 13:32N 49°18' W 123°08'0 0.0
2014-Jul-20 12:32N 49°18' W 123°08'0 0.0
2014-Jul-20 11:32N 49°18' W 123°08'0 0.0
2014-Jul-20 10:32N 49°18' W 123°08'0 0.0
2014-Jul-20 09:32N 49°18' W 123°08'0 0.0
2014-Jul-20 08:32N 49°18' W 123°08'0 0.0
2014-Jul-20 07:32N 49°18' W 123°08'0 0.0
2014-Jul-20 06:32N 49°18' W 123°08'0 0.0
2014-Jul-20 05:32N 49°18' W 123°08'0 0.0
2014-Jul-20 04:32N 49°18' W 123°08'0 0.1
2014-Jul-20 03:33N 49°18' W 123°08'1 1.4
2014-Jul-20 02:33N 49°16' W 123°07'1 1.4
2014-Jul-20 01:33N 49°18' W 123°08'0 0.0
2014-Jul-20 00:33N 49°18' W 123°08'0 0.0
2014-Jul-19 23:33N 49°18' W 123°08'0 0.0
2014-Jul-19 22:33N 49°18' W 123°08'0 0.0
2014-Jul-19 21:33N 49°18' W 123°08'0 0.0
2014-Jul-19 20:33N 49°18' W 123°08'0 0.0
2014-Jul-19 19:33N 49°18' W 123°08'0 0.0
2014-Jul-19 18:33N 49°18' W 123°08'0 0.0
2014-Jul-19 17:33N 49°18' W 123°08'0 0.0
2014-Jul-19 16:33N 49°18' W 123°08'0 0.0
2014-Jul-19 15:33N 49°18' W 123°08'0 0.0
2014-Jul-19 14:33N 49°18' W 123°08'0 0.0
2014-Jul-19 13:33N 49°18' W 123°08'0 0.0
2014-Jul-19 12:33N 49°18' W 123°08'0 0.0
2014-Jul-19 11:33N 49°18' W 123°08'0 0.0
2014-Jul-19 10:33N 49°18' W 123°08'0 0.0
2014-Jul-19 09:33N 49°18' W 123°08'0 0.0
2014-Jul-19 08:33N 49°18' W 123°08'0 0.0
2014-Jul-19 07:33N 49°18' W 123°08'0 0.0
2014-Jul-19 06:33N 49°18' W 123°08'0 0.0
2014-Jul-19 05:33N 49°18' W 123°08'0 0.0
2014-Jul-19 04:33N 49°18' W 123°08'0 0.0
2014-Jul-19 03:33N 49°18' W 123°08'0 0.0
2014-Jul-19 02:33N 49°18' W 123°08'0 0.0
2014-Jul-19 01:33N 49°18' W 123°08'0 0.0
2014-Jul-19 00:33N 49°18' W 123°08'0 0.0
2014-Jul-18 23:33N 49°18' W 123°08'0 0.0
2014-Jul-18 22:33N 49°18' W 123°08'0 0.0
2014-Jul-18 21:33N 49°18' W 123°08'0 0.0
2014-Jul-18 20:33N 49°18' W 123°08'  

Dump ship's entire track history